Time,TemperatureF,DewpointF,PressureIn,WindDirection,WindDirectionDegrees,WindSpeedMPH,WindSpeedGustMPH,Humidity,HourlyPrecipIn,Conditions,Clouds,dailyrainin,SoftwareType,DateUTC
2013-07-07 00:04:00,67.5,66.6,29.78,WSW,248,0.0,0.0,97,0.00,,,0.07,Wunderground v.1.15,2013-07-07 05:04:00,
2013-07-07 00:10:00,67.4,66.5,29.78,WSW,249,0.0,0.0,97,0.00,,,0.07,Wunderground v.1.15,2013-07-07 05:10:00,
2013-07-07 00:15:00,67.5,66.9,29.78,WSW,249,0.0,0.0,98,0.00,,,0.07,Wunderground v.1.15,2013-07-07 05:15:00,
2013-07-07 00:21:00,67.4,66.5,29.78,WSW,248,0.0,0.0,97,0.00,,,0.07,Wunderground v.1.15,2013-07-07 05:21:00,
2013-07-07 00:27:00,67.3,66.4,29.77,WSW,248,0.0,0.0,97,0.00,,,0.07,Wunderground v.1.15,2013-07-07 05:27:00,
2013-07-07 00:33:00,67.2,66.6,29.77,WSW,249,0.0,0.0,98,0.00,,,0.07,Wunderground v.1.15,2013-07-07 05:33:00,
2013-07-07 00:39:00,67.1,66.2,29.77,WSW,248,0.0,0.0,97,0.00,,,0.07,Wunderground v.1.15,2013-07-07 05:39:00,
2013-07-07 00:44:00,66.9,66.0,29.77,WSW,249,0.0,0.0,97,0.00,,,0.07,Wunderground v.1.15,2013-07-07 05:44:00,
2013-07-07 00:50:00,66.8,65.9,29.77,WSW,248,0.0,0.0,97,0.00,,,0.07,Wunderground v.1.15,2013-07-07 05:50:00,
2013-07-07 00:56:00,66.7,66.1,29.77,WSW,249,0.0,0.0,98,0.00,,,0.07,Wunderground v.1.15,2013-07-07 05:56:00,
2013-07-07 01:02:00,66.6,66.0,29.77,WSW,248,0.0,0.0,98,0.00,,,0.07,Wunderground v.1.15,2013-07-07 06:02:00,
2013-07-07 01:07:00,66.5,65.9,29.77,WSW,248,0.0,0.0,98,0.00,,,0.07,Wunderground v.1.15,2013-07-07 06:07:00,
2013-07-07 01:13:00,66.4,65.8,29.77,WSW,248,0.0,0.0,98,0.00,,,0.07,Wunderground v.1.15,2013-07-07 06:13:00,
2013-07-07 01:19:00,66.3,65.7,29.77,WSW,249,0.0,0.0,98,0.00,,,0.07,Wunderground v.1.15,2013-07-07 06:19:00,
2013-07-07 01:25:00,66.3,65.7,29.77,WSW,249,0.0,0.0,98,0.00,,,0.07,Wunderground v.1.15,2013-07-07 06:25:00,
2013-07-07 01:31:00,66.2,65.6,29.77,SSW,198,0.0,0.0,98,0.00,,,0.07,Wunderground v.1.15,2013-07-07 06:31:00,
2013-07-07 01:37:00,66.2,65.6,29.77,SSW,198,0.0,0.0,98,0.00,,,0.07,Wunderground v.1.15,2013-07-07 06:37:00,
2013-07-07 01:43:00,66.1,65.5,29.78,SSW,198,0.0,0.0,98,0.00,,,0.07,Wunderground v.1.15,2013-07-07 06:43:00,
2013-07-07 01:48:00,66.1,65.5,29.78,SSW,198,0.0,0.0,98,0.00,,,0.07,Wunderground v.1.15,2013-07-07 06:48:00,
2013-07-07 01:54:00,66.0,65.4,29.77,SSW,198,0.0,0.0,98,0.00,,,0.07,Wunderground v.1.15,2013-07-07 06:54:00,
2013-07-07 02:00:00,65.9,65.3,29.78,SSW,198,0.0,0.0,98,0.00,,,0.07,Wunderground v.1.15,2013-07-07 07:00:00,
2013-07-07 02:06:00,65.9,65.3,29.78,SSW,198,0.0,0.0,98,0.00,,,0.07,Wunderground v.1.15,2013-07-07 07:06:00,
2013-07-07 02:11:00,65.8,65.2,29.78,SSW,198,0.0,0.0,98,0.00,,,0.07,Wunderground v.1.15,2013-07-07 07:11:00,
2013-07-07 02:17:00,65.9,65.3,29.78,SSW,199,0.0,0.0,98,0.00,,,0.07,Wunderground v.1.15,2013-07-07 07:17:00,
2013-07-07 02:23:00,66.0,65.4,29.78,SSW,198,0.0,0.0,98,0.00,,,0.00,Wunderground v.1.15,2013-07-07 07:23:00,
2013-07-07 02:28:00,66.0,65.4,29.78,SSW,198,0.0,0.0,98,0.00,,,0.00,Wunderground v.1.15,2013-07-07 07:28:00,
2013-07-07 02:34:00,-999.9,-99.9,29.78,North,32767,-999.0,0.0,255,-99.99,,,0.00,Wunderground v.1.15,2013-07-07 07:34:00,
2013-07-07 02:40:00,-999.9,-99.9,29.78,North,32767,-999.0,0.0,255,-99.99,,,0.00,Wunderground v.1.15,2013-07-07 07:40:00,
2013-07-07 02:45:00,-999.9,-99.9,29.78,North,32767,-999.0,0.0,255,-99.99,,,0.00,Wunderground v.1.15,2013-07-07 07:45:00,
2013-07-07 02:51:00,66.2,65.6,29.79,SSW,198,0.0,0.0,98,0.00,,,0.00,Wunderground v.1.15,2013-07-07 07:51:00,
2013-07-07 02:56:00,66.1,65.5,29.79,SSW,198,0.0,0.0,98,0.00,,,0.00,Wunderground v.1.15,2013-07-07 07:56:00,
2013-07-07 03:01:00,66.1,65.5,29.78,SSW,198,0.0,0.0,98,0.00,,,0.00,Wunderground v.1.15,2013-07-07 08:01:00,
2013-07-07 03:06:00,66.2,65.6,29.79,SSW,198,0.0,0.0,98,0.00,,,0.00,Wunderground v.1.15,2013-07-07 08:06:00,
2013-07-07 03:11:00,66.2,65.6,29.79,SSW,198,0.0,0.0,98,0.00,,,0.00,Wunderground v.1.15,2013-07-07 08:11:00,
2013-07-07 03:17:00,66.4,65.8,29.79,SSW,198,0.0,0.0,98,0.00,,,0.00,Wunderground v.1.15,2013-07-07 08:17:00,
2013-07-07 03:22:00,66.4,65.8,29.79,SSW,198,0.0,0.0,98,0.00,,,0.00,Wunderground v.1.15,2013-07-07 08:22:00,
2013-07-07 03:28:00,66.4,65.8,29.78,SSW,198,0.0,0.0,98,0.00,,,0.00,Wunderground v.1.15,2013-07-07 08:28:00,
2013-07-07 03:33:00,66.5,65.9,29.79,SSW,199,0.0,0.0,98,0.00,,,0.00,Wunderground v.1.15,2013-07-07 08:33:00,
2013-07-07 03:39:00,66.5,65.9,29.79,SSW,198,0.0,0.0,98,0.00,,,0.00,Wunderground v.1.15,2013-07-07 08:39:00,
2013-07-07 03:45:00,66.6,66.0,29.78,SSW,198,0.0,0.0,98,0.00,,,0.00,Wunderground v.1.15,2013-07-07 08:45:00,
2013-07-07 03:51:00,66.7,66.1,29.78,SSW,198,0.0,0.0,98,0.00,,,0.00,Wunderground v.1.15,2013-07-07 08:51:00,
2013-07-07 03:57:00,66.8,66.5,29.78,SSW,198,0.0,0.0,99,0.00,,,0.00,Wunderground v.1.15,2013-07-07 08:57:00,
2013-07-07 04:03:00,66.8,66.5,29.78,SSW,199,0.0,0.0,99,0.00,,,0.00,Wunderground v.1.15,2013-07-07 09:03:00,
2013-07-07 04:09:00,66.9,66.6,29.78,SSW,198,0.0,0.0,99,0.00,,,0.00,Wunderground v.1.15,2013-07-07 09:09:00,
2013-07-07 04:15:00,67.0,66.7,29.78,SSW,198,0.0,0.0,99,0.00,,,0.00,Wunderground v.1.15,2013-07-07 09:15:00,
2013-07-07 04:20:00,67.1,66.8,29.78,SSW,198,0.0,0.0,99,0.00,,,0.00,Wunderground v.1.15,2013-07-07 09:20:00,
2013-07-07 04:26:00,67.1,66.8,29.78,SSW,198,0.0,0.0,99,0.00,,,0.00,Wunderground v.1.15,2013-07-07 09:26:00,
2013-07-07 04:32:00,67.1,66.8,29.78,SSW,198,0.0,0.0,99,0.00,,,0.00,Wunderground v.1.15,2013-07-07 09:32:00,
2013-07-07 04:37:00,67.1,66.5,29.79,SSW,198,0.0,0.0,98,0.00,,,0.00,Wunderground v.1.15,2013-07-07 09:37:00,
2013-07-07 04:43:00,67.1,66.5,29.79,SSW,198,0.0,0.0,98,0.00,,,0.00,Wunderground v.1.15,2013-07-07 09:43:00,
2013-07-07 04:49:00,67.1,66.5,29.79,SSW,198,0.0,0.0,98,0.00,,,0.00,Wunderground v.1.15,2013-07-07 09:49:00,
2013-07-07 04:54:00,67.1,66.5,29.79,SSW,198,0.0,0.0,98,0.00,,,0.00,Wunderground v.1.15,2013-07-07 09:54:00,
2013-07-07 05:00:00,67.1,66.5,29.79,SSW,198,0.0,0.0,98,0.00,,,0.00,Wunderground v.1.15,2013-07-07 10:00:00,
2013-07-07 05:06:00,67.1,66.5,29.79,SSW,198,0.0,0.0,98,0.00,,,0.00,Wunderground v.1.15,2013-07-07 10:06:00,
2013-07-07 05:11:00,67.1,66.5,29.79,SSW,198,0.0,0.0,98,0.00,,,0.00,Wunderground v.1.15,2013-07-07 10:11:00,
2013-07-07 05:17:00,67.0,66.4,29.79,SSW,198,0.0,0.0,98,0.00,,,0.00,Wunderground v.1.15,2013-07-07 10:17:00,
2013-07-07 05:23:00,67.0,66.4,29.79,SSW,198,0.0,0.0,98,0.00,,,0.00,Wunderground v.1.15,2013-07-07 10:23:00,
2013-07-07 05:29:00,67.1,66.5,29.79,SSW,198,0.0,0.0,98,0.00,,,0.00,Wunderground v.1.15,2013-07-07 10:29:00,
2013-07-07 05:35:00,67.1,66.5,29.79,SSW,198,0.0,0.0,98,0.00,,,0.00,Wunderground v.1.15,2013-07-07 10:35:00,
2013-07-07 05:41:00,67.0,66.4,29.79,SSW,198,0.0,0.0,98,0.00,,,0.00,Wunderground v.1.15,2013-07-07 10:41:00,
2013-07-07 05:47:00,67.1,66.5,29.79,SSW,198,0.0,0.0,98,0.00,,,0.00,Wunderground v.1.15,2013-07-07 10:47:00,
2013-07-07 05:52:00,67.1,66.5,29.79,SSW,198,0.0,0.0,98,0.00,,,0.00,Wunderground v.1.15,2013-07-07 10:52:00,
2013-07-07 05:58:00,67.1,66.5,29.80,SSW,198,0.0,0.0,98,0.00,,,0.00,Wunderground v.1.15,2013-07-07 10:58:00,
2013-07-07 06:04:00,67.1,66.5,29.79,SSW,198,0.0,0.0,98,0.00,,,0.00,Wunderground v.1.15,2013-07-07 11:04:00,
2013-07-07 06:10:00,67.1,66.8,29.79,SSW,198,0.0,0.0,99,0.00,,,0.00,Wunderground v.1.15,2013-07-07 11:10:00,
2013-07-07 06:15:00,67.1,66.8,29.80,SSW,198,0.0,0.0,99,0.00,,,0.00,Wunderground v.1.15,2013-07-07 11:15:00,
2013-07-07 06:21:00,67.2,66.9,29.80,SSW,198,0.0,0.0,99,0.00,,,0.00,Wunderground v.1.15,2013-07-07 11:21:00,
2013-07-07 06:27:00,67.3,67.0,29.80,SSW,198,0.0,0.0,99,0.00,,,0.00,Wunderground v.1.15,2013-07-07 11:27:00,
2013-07-07 06:32:00,67.4,67.1,29.80,SSW,198,0.0,0.0,99,0.00,,,0.00,Wunderground v.1.15,2013-07-07 11:32:00,
2013-07-07 06:38:00,67.5,67.2,29.80,SSW,198,0.0,0.0,99,0.00,,,0.00,Wunderground v.1.15,2013-07-07 11:38:00,
2013-07-07 06:44:00,67.6,67.3,29.80,SSW,198,0.0,0.0,99,0.00,,,0.00,Wunderground v.1.15,2013-07-07 11:44:00,
2013-07-07 06:49:00,67.6,67.3,29.81,SSW,198,0.0,0.0,99,0.00,,,0.00,Wunderground v.1.15,2013-07-07 11:49:00,
2013-07-07 06:55:00,67.8,67.5,29.81,SSW,198,0.0,0.0,99,0.00,,,0.00,Wunderground v.1.15,2013-07-07 11:55:00,
2013-07-07 07:00:00,68.0,67.7,29.81,SSW,198,0.0,0.0,99,0.00,,,0.00,Wunderground v.1.15,2013-07-07 12:00:00,
2013-07-07 07:06:00,68.2,67.9,29.80,SSW,198,0.0,0.0,99,0.00,,,0.00,Wunderground v.1.15,2013-07-07 12:06:00,
2013-07-07 07:12:00,68.4,68.1,29.80,SSW,198,0.0,0.0,99,0.00,,,0.00,Wunderground v.1.15,2013-07-07 12:12:00,
2013-07-07 07:18:00,68.5,68.2,29.81,SSW,198,0.0,0.0,99,0.00,,,0.00,Wunderground v.1.15,2013-07-07 12:18:00,
2013-07-07 07:23:00,68.7,68.4,29.81,SSW,198,0.0,0.0,99,0.00,,,0.00,Wunderground v.1.15,2013-07-07 12:23:00,
2013-07-07 07:29:00,68.8,68.5,29.80,SSW,198,0.0,0.0,99,0.00,,,0.00,Wunderground v.1.15,2013-07-07 12:29:00,
2013-07-07 07:35:00,68.7,68.4,29.81,SSW,199,0.0,0.0,99,0.00,,,0.00,Wunderground v.1.15,2013-07-07 12:35:00,
2013-07-07 07:40:00,68.9,68.6,29.81,SSW,199,0.0,0.0,99,0.00,,,0.00,Wunderground v.1.15,2013-07-07 12:40:00,
2013-07-07 07:46:00,68.9,68.6,29.81,SSW,199,0.0,0.0,99,0.00,,,0.00,Wunderground v.1.15,2013-07-07 12:46:00,
2013-07-07 07:52:00,68.9,68.6,29.81,SSW,199,0.0,0.0,99,0.00,,,0.00,Wunderground v.1.15,2013-07-07 12:52:00,
2013-07-07 07:58:00,69.2,68.9,29.81,SW,219,0.0,0.0,99,0.00,,,0.00,Wunderground v.1.15,2013-07-07 12:58:00,
2013-07-07 08:03:00,69.2,68.9,29.81,SW,218,0.0,1.0,99,0.00,,,0.00,Wunderground v.1.15,2013-07-07 13:03:00,
2013-07-07 08:09:00,69.2,68.9,29.81,SW,219,0.0,1.0,99,0.00,,,0.00,Wunderground v.1.15,2013-07-07 13:09:00,
2013-07-07 08:15:00,69.5,69.2,29.81,SW,219,0.0,1.0,99,0.00,,,0.00,Wunderground v.1.15,2013-07-07 13:15:00,
2013-07-07 08:21:00,69.7,69.4,29.81,SW,219,0.0,1.0,99,0.00,,,0.00,Wunderground v.1.15,2013-07-07 13:21:00,
2013-07-07 08:26:00,69.9,69.6,29.81,SW,218,0.0,1.0,99,0.00,,,0.00,Wunderground v.1.15,2013-07-07 13:26:00,
2013-07-07 08:32:00,70.1,69.8,29.81,SW,219,0.0,1.0,99,0.00,,,0.00,Wunderground v.1.15,2013-07-07 13:32:00,
2013-07-07 08:38:00,70.1,69.5,29.81,SW,231,0.0,1.0,98,0.00,,,0.00,Wunderground v.1.15,2013-07-07 13:38:00,
2013-07-07 08:43:00,70.5,70.2,29.81,SW,231,0.0,1.0,99,0.00,,,0.00,Wunderground v.1.15,2013-07-07 13:43:00,
2013-07-07 08:49:00,70.7,70.1,29.81,South,189,0.0,1.0,98,0.00,,,0.00,Wunderground v.1.15,2013-07-07 13:49:00,
2013-07-07 08:55:00,70.9,70.3,29.81,South,191,0.0,1.0,98,0.00,,,0.00,Wunderground v.1.15,2013-07-07 13:55:00,
2013-07-07 09:00:00,71.4,70.8,29.81,South,190,0.0,0.0,98,0.00,,,0.00,Wunderground v.1.15,2013-07-07 14:00:00,
2013-07-07 09:06:00,72.3,71.7,29.81,South,191,0.0,0.0,98,0.00,,,0.00,Wunderground v.1.15,2013-07-07 14:06:00,
2013-07-07 09:12:00,73.2,72.6,29.81,South,189,0.0,0.0,98,0.00,,,0.00,Wunderground v.1.15,2013-07-07 14:12:00,
2013-07-07 09:18:00,74.1,72.6,29.81,SSW,194,0.0,0.0,95,0.00,,,0.00,Wunderground v.1.15,2013-07-07 14:18:00,
2013-07-07 09:23:00,74.4,72.6,29.81,SSW,195,0.0,0.0,94,0.00,,,0.00,Wunderground v.1.15,2013-07-07 14:23:00,
2013-07-07 09:29:00,74.8,72.6,29.81,SSW,194,0.0,1.0,93,0.00,,,0.00,Wunderground v.1.15,2013-07-07 14:29:00,
2013-07-07 09:35:00,75.3,72.8,29.81,SSW,195,0.0,0.0,92,0.00,,,0.00,Wunderground v.1.15,2013-07-07 14:35:00,
2013-07-07 09:41:00,75.7,73.2,29.81,SSW,194,0.0,0.0,92,0.00,,,0.00,Wunderground v.1.15,2013-07-07 14:41:00,
2013-07-07 09:46:00,75.8,72.3,29.81,WNW,294,0.0,2.0,89,0.00,,,0.00,Wunderground v.1.15,2013-07-07 14:46:00,
2013-07-07 09:52:00,74.9,71.8,29.81,West,268,1.0,2.0,90,0.00,,,0.00,Wunderground v.1.15,2013-07-07 14:52:00,
2013-07-07 09:58:00,74.8,72.0,29.81,West,259,1.0,2.0,91,0.00,,,0.00,Wunderground v.1.15,2013-07-07 14:58:00,
2013-07-07 10:04:00,74.9,72.4,29.81,South,170,0.0,2.0,92,0.00,,,0.00,Wunderground v.1.15,2013-07-07 15:04:00,
2013-07-07 10:09:00,75.5,72.7,29.81,SSW,208,0.0,2.0,91,0.00,,,0.00,Wunderground v.1.15,2013-07-07 15:09:00,
2013-07-07 10:15:00,75.9,72.4,29.81,West,264,0.0,2.0,89,0.00,,,0.00,Wunderground v.1.15,2013-07-07 15:15:00,
2013-07-07 10:21:00,76.1,71.9,29.81,SW,225,1.0,2.0,87,0.00,,,0.00,Wunderground v.1.15,2013-07-07 15:21:00,
2013-07-07 10:26:00,76.3,72.1,29.81,WNW,289,0.0,2.0,87,0.00,,,0.00,Wunderground v.1.15,2013-07-07 15:26:00,
2013-07-07 10:32:00,76.4,71.6,29.81,West,279,0.0,2.0,85,0.00,,,0.00,Wunderground v.1.15,2013-07-07 15:32:00,
2013-07-07 10:37:00,76.3,72.1,29.81,West,270,1.0,2.0,87,0.00,,,0.00,Wunderground v.1.15,2013-07-07 15:37:00,
2013-07-07 10:43:00,76.6,72.1,29.81,West,260,1.0,2.0,86,0.00,,,0.00,Wunderground v.1.15,2013-07-07 15:43:00,
2013-07-07 10:49:00,77.1,72.6,29.81,SW,225,1.0,2.0,86,0.00,,,0.00,Wunderground v.1.15,2013-07-07 15:49:00,
2013-07-07 10:55:00,78.0,72.4,29.81,WSW,246,1.0,2.0,83,0.00,,,0.00,Wunderground v.1.15,2013-07-07 15:55:00,
2013-07-07 11:00:00,78.6,73.0,29.81,West,277,1.0,1.0,83,0.00,,,0.00,Wunderground v.1.15,2013-07-07 16:00:00,
2013-07-07 11:06:00,79.4,72.7,29.82,WSW,255,0.0,3.0,80,0.00,,,0.00,Wunderground v.1.15,2013-07-07 16:06:00,
2013-07-07 11:12:00,79.3,72.2,29.82,West,260,1.0,3.0,79,0.00,,,0.00,Wunderground v.1.15,2013-07-07 16:12:00,
2013-07-07 11:18:00,79.6,72.5,29.82,WNW,296,0.0,3.0,79,0.00,,,0.00,Wunderground v.1.15,2013-07-07 16:18:00,
2013-07-07 11:20:00,79.7,71.8,29.82,WNW,288,1.0,3.0,77,0.00,,,0.00,Wunderground v.1.15,2013-07-07 16:20:00,
2013-07-07 11:26:00,79.8,72.3,29.82,WNW,289,1.0,3.0,78,0.00,,,0.00,Wunderground v.1.15,2013-07-07 16:26:00,
2013-07-07 11:32:00,80.0,71.8,29.82,WSW,245,1.0,3.0,76,0.00,,,0.00,Wunderground v.1.15,2013-07-07 16:32:00,
2013-07-07 11:37:00,80.2,73.1,29.82,SW,216,1.0,4.0,79,0.00,,,0.00,Wunderground v.1.15,2013-07-07 16:37:00,
2013-07-07 11:43:00,80.5,71.8,29.82,West,260,1.0,3.0,75,0.00,,,0.00,Wunderground v.1.15,2013-07-07 16:43:00,
2013-07-07 11:49:00,80.5,71.0,29.83,West,270,1.0,3.0,73,0.00,,,0.00,Wunderground v.1.15,2013-07-07 16:49:00,
2013-07-07 11:55:00,80.9,72.6,29.82,WSW,244,1.0,3.0,76,0.00,,,0.00,Wunderground v.1.15,2013-07-07 16:55:00,
2013-07-07 12:00:00,81.3,72.2,29.82,SW,227,1.0,2.0,74,0.00,,,0.00,Wunderground v.1.15,2013-07-07 17:00:00,
2013-07-07 12:06:00,81.4,71.9,29.82,West,266,2.0,4.0,73,0.00,,,0.00,Wunderground v.1.15,2013-07-07 17:06:00,
2013-07-07 12:12:00,81.6,70.9,29.82,SW,225,2.0,2.0,70,0.00,,,0.00,Wunderground v.1.15,2013-07-07 17:12:00,
2013-07-07 12:17:00,81.7,72.6,29.82,WSW,239,2.0,2.0,74,0.00,,,0.00,Wunderground v.1.15,2013-07-07 17:17:00,
2013-07-07 12:23:00,82.5,72.1,29.82,WSW,249,1.0,3.0,71,0.00,,,0.00,Wunderground v.1.15,2013-07-07 17:23:00,
2013-07-07 12:29:00,82.9,72.5,29.82,WSW,253,1.0,3.0,71,0.00,,,0.00,Wunderground v.1.15,2013-07-07 17:29:00,
2013-07-07 12:35:00,82.8,72.4,29.83,SW,228,1.0,2.0,71,0.00,,,0.00,Wunderground v.1.15,2013-07-07 17:35:00,
2013-07-07 12:41:00,82.9,72.1,29.82,WSW,253,2.0,2.0,70,0.00,,,0.00,Wunderground v.1.15,2013-07-07 17:41:00,
2013-07-07 12:47:00,82.9,72.1,29.82,West,272,1.0,2.0,70,0.00,,,0.00,Wunderground v.1.15,2013-07-07 17:47:00,
2013-07-07 12:53:00,83.0,72.2,29.82,West,259,1.0,4.0,70,0.00,,,0.00,Wunderground v.1.15,2013-07-07 17:53:00,
2013-07-07 12:58:00,82.7,71.9,29.82,WSW,241,2.0,4.0,70,0.00,,,0.00,Wunderground v.1.15,2013-07-07 17:58:00,
2013-07-07 13:04:00,82.9,72.1,29.82,WNW,301,1.0,3.0,70,0.00,,,0.00,Wunderground v.1.15,2013-07-07 18:04:00,
2013-07-07 13:10:00,83.2,72.0,29.83,WNW,286,1.0,1.0,69,0.00,,,0.00,Wunderground v.1.15,2013-07-07 18:10:00,
2013-07-07 13:16:00,83.5,72.7,29.83,West,278,1.0,2.0,70,0.00,,,0.00,Wunderground v.1.15,2013-07-07 18:16:00,
2013-07-07 13:22:00,83.8,72.5,29.83,SW,220,1.0,1.0,69,0.00,,,0.00,Wunderground v.1.15,2013-07-07 18:22:00,
2013-07-07 13:28:00,84.1,72.4,29.83,WNW,303,1.0,1.0,68,0.00,,,0.00,Wunderground v.1.15,2013-07-07 18:28:00,
2013-07-07 13:34:00,84.0,71.9,29.83,WNW,288,1.0,3.0,67,0.00,,,0.00,Wunderground v.1.15,2013-07-07 18:34:00,
2013-07-07 13:39:00,83.8,73.0,29.83,WSW,244,1.0,3.0,70,0.00,,,0.00,Wunderground v.1.15,2013-07-07 18:39:00,
2013-07-07 13:45:00,84.5,73.2,29.83,WSW,253,1.0,1.0,69,0.00,,,0.00,Wunderground v.1.15,2013-07-07 18:45:00,
2013-07-07 13:51:00,85.2,73.0,29.83,West,263,0.0,1.0,67,0.00,,,0.00,Wunderground v.1.15,2013-07-07 18:51:00,
2013-07-07 13:57:00,85.5,71.9,29.83,SW,215,1.0,2.0,64,0.00,,,0.00,Wunderground v.1.15,2013-07-07 18:57:00,
2013-07-07 14:02:00,85.4,72.3,29.83,WSW,244,1.0,2.0,65,0.00,,,0.00,Wunderground v.1.15,2013-07-07 19:02:00,
2013-07-07 14:08:00,85.0,72.8,29.83,WSW,246,1.0,2.0,67,0.00,,,0.00,Wunderground v.1.15,2013-07-07 19:08:00,
2013-07-07 14:14:00,85.0,72.8,29.83,WSW,241,1.0,2.0,67,0.00,,,0.00,Wunderground v.1.15,2013-07-07 19:14:00,
2013-07-07 14:20:00,85.4,72.3,29.82,West,280,1.0,1.0,65,0.00,,,0.00,Wunderground v.1.15,2013-07-07 19:20:00,
2013-07-07 14:24:00,85.2,72.6,29.82,WSW,238,0.0,2.0,66,0.00,,,0.00,Wunderground v.1.15,2013-07-07 19:24:00,
2013-07-07 14:30:00,84.9,71.4,29.82,West,275,0.0,2.0,64,0.00,,,0.00,Wunderground v.1.15,2013-07-07 19:30:00,
2013-07-07 14:36:00,84.5,71.9,29.82,SSW,204,1.0,2.0,66,0.00,,,0.00,Wunderground v.1.15,2013-07-07 19:36:00,
2013-07-07 14:42:00,84.8,70.8,29.82,WNW,282,1.0,2.0,63,0.00,,,0.00,Wunderground v.1.15,2013-07-07 19:42:00,
2013-07-07 14:48:00,84.5,71.0,29.82,WSW,241,1.0,2.0,64,0.00,,,0.00,Wunderground v.1.15,2013-07-07 19:48:00,
2013-07-07 14:54:00,84.5,71.4,29.82,WSW,247,1.0,2.0,65,0.00,,,0.00,Wunderground v.1.15,2013-07-07 19:54:00,
2013-07-07 15:00:00,85.0,72.8,29.82,WSW,247,0.0,0.0,67,0.00,,,0.00,Wunderground v.1.15,2013-07-07 20:00:00,
2013-07-07 15:06:00,85.4,71.8,29.82,WSW,247,0.0,0.0,64,0.00,,,0.00,Wunderground v.1.15,2013-07-07 20:06:00,
2013-07-07 15:12:00,85.8,71.7,29.82,WSW,251,0.0,1.0,63,0.00,,,0.00,Wunderground v.1.15,2013-07-07 20:12:00,
2013-07-07 15:18:00,86.4,73.7,29.82,WSW,251,0.0,1.0,66,0.00,,,0.00,Wunderground v.1.15,2013-07-07 20:18:00,
2013-07-07 15:23:00,86.5,71.5,29.82,West,261,0.0,2.0,61,0.00,,,0.00,Wunderground v.1.15,2013-07-07 20:23:00,
2013-07-07 15:29:00,85.8,71.3,29.82,West,278,1.0,2.0,62,0.00,,,0.00,Wunderground v.1.15,2013-07-07 20:29:00,
2013-07-07 15:35:00,85.5,72.4,29.82,West,264,0.0,1.0,65,0.00,,,0.00,Wunderground v.1.15,2013-07-07 20:35:00,
2013-07-07 15:41:00,86.2,72.1,29.82,WSW,251,0.0,0.0,63,0.00,,,0.00,Wunderground v.1.15,2013-07-07 20:41:00,
2013-07-07 15:47:00,86.6,72.0,29.82,SW,228,0.0,0.0,62,0.00,,,0.00,Wunderground v.1.15,2013-07-07 20:47:00,
2013-07-07 15:53:00,87.2,72.6,29.82,SE,143,1.0,1.0,62,0.00,,,0.00,Wunderground v.1.15,2013-07-07 20:53:00,
2013-07-07 15:59:00,87.8,71.7,29.81,SW,234,1.0,2.0,59,0.00,,,0.00,Wunderground v.1.15,2013-07-07 20:59:00,
2013-07-07 16:05:00,87.2,72.1,29.82,SW,234,1.0,1.0,61,0.00,,,0.00,Wunderground v.1.15,2013-07-07 21:05:00,
2013-07-07 16:11:00,87.5,71.9,29.82,SW,232,0.0,2.0,60,0.00,,,0.00,Wunderground v.1.15,2013-07-07 21:11:00,
2013-07-07 16:17:00,87.5,72.4,29.82,SSW,198,0.0,2.0,61,0.00,,,0.00,Wunderground v.1.15,2013-07-07 21:17:00,
2013-07-07 16:23:00,87.0,71.4,29.82,SSW,201,0.0,1.0,60,0.00,,,0.00,Wunderground v.1.15,2013-07-07 21:23:00,
2013-07-07 16:28:00,86.4,72.8,29.82,WSW,256,0.0,1.0,64,0.00,,,0.00,Wunderground v.1.15,2013-07-07 21:28:00,
2013-07-07 16:33:00,86.3,72.2,29.82,SW,214,0.0,1.0,63,0.00,,,0.00,Wunderground v.1.15,2013-07-07 21:33:00,
2013-07-07 16:39:00,87.0,73.8,29.82,West,268,0.0,2.0,65,0.00,,,0.00,Wunderground v.1.15,2013-07-07 21:39:00,
2013-07-07 16:44:00,86.6,73.0,29.82,West,269,1.0,2.0,64,0.00,,,0.00,Wunderground v.1.15,2013-07-07 21:44:00,
2013-07-07 16:50:00,86.0,72.4,29.82,West,268,1.0,1.0,64,0.00,,,0.00,Wunderground v.1.15,2013-07-07 21:50:00,
2013-07-07 16:56:00,85.2,72.1,29.82,West,270,1.0,3.0,65,0.00,,,0.00,Wunderground v.1.15,2013-07-07 21:56:00,
2013-07-07 17:01:00,84.8,72.6,29.82,WSW,237,1.0,2.0,67,0.00,,,0.00,Wunderground v.1.15,2013-07-07 22:01:00,
2013-07-07 17:07:00,85.1,72.0,29.82,WSW,241,0.0,4.0,65,0.00,,,0.00,Wunderground v.1.15,2013-07-07 22:07:00,
2013-07-07 17:13:00,85.3,72.6,29.82,West,278,1.0,2.0,66,0.00,,,0.00,Wunderground v.1.15,2013-07-07 22:13:00,
2013-07-07 17:19:00,84.9,73.6,29.82,SW,234,0.0,2.0,69,0.00,,,0.00,Wunderground v.1.15,2013-07-07 22:19:00,
2013-07-07 17:25:00,84.9,72.7,29.82,WSW,248,0.0,2.0,67,0.00,,,0.00,Wunderground v.1.15,2013-07-07 22:25:00,
2013-07-07 17:31:00,84.9,73.2,29.82,WSW,251,0.0,2.0,68,0.00,,,0.00,Wunderground v.1.15,2013-07-07 22:31:00,
2013-07-07 17:36:00,84.6,72.4,29.82,WSW,251,0.0,2.0,67,0.00,,,0.00,Wunderground v.1.15,2013-07-07 22:36:00,
2013-07-07 17:42:00,84.2,73.3,29.82,West,274,0.0,2.0,70,0.00,,,0.00,Wunderground v.1.15,2013-07-07 22:42:00,
2013-07-07 17:48:00,83.8,72.1,29.82,WSW,245,0.0,2.0,68,0.00,,,0.00,Wunderground v.1.15,2013-07-07 22:48:00,
2013-07-07 17:54:00,84.1,72.4,29.82,WSW,237,0.0,2.0,68,0.00,,,0.00,Wunderground v.1.15,2013-07-07 22:54:00,
2013-07-07 18:00:00,84.1,73.7,29.82,SW,227,0.0,0.0,71,0.00,,,0.00,Wunderground v.1.15,2013-07-07 23:00:00,
2013-07-07 18:06:00,84.1,72.8,29.82,SW,227,0.0,0.0,69,0.00,,,0.00,Wunderground v.1.15,2013-07-07 23:06:00,
2013-07-07 18:12:00,83.9,73.1,29.82,West,263,0.0,0.0,70,0.00,,,0.00,Wunderground v.1.15,2013-07-07 23:12:00,
2013-07-07 18:18:00,83.9,74.3,29.81,West,263,0.0,0.0,73,0.00,,,0.00,Wunderground v.1.15,2013-07-07 23:18:00,
2013-07-07 18:24:00,84.3,73.9,29.82,WSW,249,0.0,1.0,71,0.00,,,0.00,Wunderground v.1.15,2013-07-07 23:24:00,
2013-07-07 18:30:00,84.8,73.9,29.82,SW,220,0.0,0.0,70,0.00,,,0.00,Wunderground v.1.15,2013-07-07 23:30:00,
2013-07-07 18:35:00,85.4,73.6,29.82,SW,228,0.0,0.0,68,0.00,,,0.00,Wunderground v.1.15,2013-07-07 23:35:00,
2013-07-07 18:41:00,85.8,72.7,29.82,SW,230,0.0,0.0,65,0.00,,,0.00,Wunderground v.1.15,2013-07-07 23:41:00,
2013-07-07 18:47:00,85.4,72.3,29.81,SW,234,0.0,0.0,65,0.00,,,0.00,Wunderground v.1.15,2013-07-07 23:47:00,
2013-07-07 18:53:00,84.4,74.0,29.82,SW,234,0.0,0.0,71,0.00,,,0.00,Wunderground v.1.15,2013-07-07 23:53:00,
2013-07-07 18:59:00,83.2,73.2,29.81,SW,234,0.0,0.0,72,0.00,,,0.00,Wunderground v.1.15,2013-07-07 23:59:00,
2013-07-07 19:04:00,82.5,73.4,29.81,SW,234,0.0,0.0,74,0.00,,,0.00,Wunderground v.1.15,2013-07-08 00:04:00,
2013-07-07 19:10:00,81.9,73.2,29.81,SW,234,0.0,0.0,75,0.00,,,0.00,Wunderground v.1.15,2013-07-08 00:10:00,
2013-07-07 19:16:00,81.4,73.1,29.81,WNW,286,0.0,1.0,76,0.00,,,0.00,Wunderground v.1.15,2013-07-08 00:16:00,
2013-07-07 19:21:00,81.1,72.8,29.82,SW,230,0.0,0.0,76,0.00,,,0.00,Wunderground v.1.15,2013-07-08 00:21:00,
2013-07-07 19:26:00,80.9,72.6,29.82,SW,229,0.0,0.0,76,0.00,,,0.00,Wunderground v.1.15,2013-07-08 00:26:00,
2013-07-07 19:32:00,80.8,72.9,29.83,SW,230,0.0,0.0,77,0.00,,,0.00,Wunderground v.1.15,2013-07-08 00:32:00,
2013-07-07 19:37:00,80.7,72.8,29.83,SW,230,0.0,0.0,77,0.00,,,0.00,Wunderground v.1.15,2013-07-08 00:37:00,
2013-07-07 19:43:00,80.5,72.6,29.83,SW,230,0.0,0.0,77,0.00,,,0.00,Wunderground v.1.15,2013-07-08 00:43:00,
2013-07-07 19:49:00,80.3,74.3,29.83,SW,230,0.0,0.0,82,0.00,,,0.00,Wunderground v.1.15,2013-07-08 00:49:00,
2013-07-07 19:55:00,80.1,74.1,29.83,SW,230,0.0,0.0,82,0.00,,,0.00,Wunderground v.1.15,2013-07-08 00:55:00,
2013-07-07 19:56:00,80.0,74.0,29.83,SW,230,0.0,0.0,82,0.00,,,0.00,Wunderground v.1.15,2013-07-08 00:56:00,
2013-07-07 20:01:00,79.8,73.8,29.83,SW,230,0.0,0.0,82,0.00,,,0.00,Wunderground v.1.15,2013-07-08 01:01:00,
2013-07-07 20:07:00,79.7,73.7,29.83,SW,230,0.0,0.0,82,0.00,,,0.00,Wunderground v.1.15,2013-07-08 01:07:00,
2013-07-07 20:13:00,79.5,73.5,29.83,SW,230,0.0,0.0,82,0.00,,,0.00,Wunderground v.1.15,2013-07-08 01:13:00,
2013-07-07 20:19:00,79.2,73.9,29.84,SW,229,0.0,0.0,84,0.00,,,0.00,Wunderground v.1.15,2013-07-08 01:19:00,
2013-07-07 20:25:00,78.9,73.7,29.84,SW,229,0.0,0.0,84,0.00,,,0.00,Wunderground v.1.15,2013-07-08 01:25:00,
2013-07-07 20:31:00,78.3,73.4,29.84,SW,229,0.0,0.0,85,0.00,,,0.00,Wunderground v.1.15,2013-07-08 01:31:00,
2013-07-07 20:36:00,77.8,72.9,29.84,SW,229,0.0,0.0,85,0.00,,,0.00,Wunderground v.1.15,2013-07-08 01:36:00,
2013-07-07 20:42:00,77.3,72.4,29.84,SW,229,0.0,0.0,85,0.00,,,0.00,Wunderground v.1.15,2013-07-08 01:42:00,
2013-07-07 20:48:00,76.8,72.3,29.85,SW,229,0.0,0.0,86,0.00,,,0.00,Wunderground v.1.15,2013-07-08 01:48:00,
2013-07-07 20:53:00,76.4,72.2,29.85,SW,229,0.0,0.0,87,0.00,,,0.00,Wunderground v.1.15,2013-07-08 01:53:00,
2013-07-07 20:59:00,76.1,71.9,29.85,SW,229,0.0,0.0,87,0.00,,,0.00,Wunderground v.1.15,2013-07-08 01:59:00,
2013-07-07 21:05:00,75.9,72.1,29.85,SW,228,0.0,0.0,88,0.00,,,0.00,Wunderground v.1.15,2013-07-08 02:05:00,
2013-07-07 21:10:00,75.8,72.0,29.85,SW,228,0.0,0.0,88,0.00,,,0.00,Wunderground v.1.15,2013-07-08 02:10:00,
2013-07-07 21:16:00,75.7,72.2,29.85,SW,229,0.0,0.0,89,0.00,,,0.00,Wunderground v.1.15,2013-07-08 02:16:00,
2013-07-07 21:22:00,75.5,72.0,29.85,SW,229,0.0,0.0,89,0.00,,,0.00,Wunderground v.1.15,2013-07-08 02:22:00,
2013-07-07 21:28:00,75.5,70.7,29.85,SW,221,0.0,4.0,85,0.00,,,0.00,Wunderground v.1.15,2013-07-08 02:28:00,
2013-07-07 21:34:00,76.1,69.5,29.85,SSW,208,1.0,5.0,80,0.00,,,0.00,Wunderground v.1.15,2013-07-08 02:34:00,
2013-07-07 21:40:00,76.3,68.6,29.86,SW,214,1.0,1.0,77,0.00,,,0.00,Wunderground v.1.15,2013-07-08 02:40:00,
2013-07-07 21:46:00,76.1,68.0,29.86,WSW,252,0.0,1.0,76,0.00,,,0.00,Wunderground v.1.15,2013-07-08 02:46:00,
2013-07-07 21:52:00,75.9,67.8,29.86,SSW,196,0.0,0.0,76,0.00,,,0.00,Wunderground v.1.15,2013-07-08 02:52:00,
2013-07-07 21:58:00,75.6,67.5,29.86,West,270,1.0,3.0,76,0.00,,,0.00,Wunderground v.1.15,2013-07-08 02:58:00,
2013-07-07 22:03:00,75.3,67.2,29.86,SSW,192,1.0,2.0,76,0.00,,,0.00,Wunderground v.1.15,2013-07-08 03:03:00,
2013-07-07 22:08:00,75.1,67.4,29.87,SW,219,1.0,2.0,77,0.00,,,0.00,Wunderground v.1.15,2013-07-08 03:08:00,
2013-07-07 22:14:00,74.7,67.0,29.87,SSW,210,0.0,1.0,77,0.00,,,0.00,Wunderground v.1.15,2013-07-08 03:14:00,
2013-07-07 22:20:00,74.4,67.1,29.87,SW,218,0.0,0.0,78,0.00,,,0.00,Wunderground v.1.15,2013-07-08 03:20:00,
2013-07-07 22:26:00,74.1,67.2,29.87,South,172,0.0,0.0,79,0.00,,,0.00,Wunderground v.1.15,2013-07-08 03:26:00,
2013-07-07 22:32:00,73.7,66.8,29.87,South,177,0.0,0.0,79,0.00,,,0.00,Wunderground v.1.15,2013-07-08 03:32:00,
2013-07-07 22:38:00,73.5,66.9,29.88,SSW,206,0.0,0.0,80,0.00,,,0.00,Wunderground v.1.15,2013-07-08 03:38:00,
2013-07-07 22:44:00,73.3,66.8,29.88,SSW,206,0.0,0.0,80,0.00,,,0.00,Wunderground v.1.15,2013-07-08 03:44:00,
2013-07-07 22:50:00,73.1,66.6,29.87,SSW,201,0.0,0.0,80,0.00,,,0.00,Wunderground v.1.15,2013-07-08 03:50:00,
2013-07-07 22:56:00,72.9,66.4,29.88,SSW,192,0.0,0.0,80,0.00,,,0.00,Wunderground v.1.15,2013-07-08 03:56:00,
2013-07-07 23:01:00,72.7,66.2,29.88,SW,229,0.0,0.0,80,0.00,,,0.00,Wunderground v.1.15,2013-07-08 04:01:00,
2013-07-07 23:02:00,72.7,66.2,29.88,WSW,258,0.0,0.0,80,0.00,,,0.00,Wunderground v.1.15,2013-07-08 04:02:00,
2013-07-07 23:05:00,72.6,66.1,29.88,South,189,0.0,0.0,80,0.00,,,0.00,Wunderground v.1.15,2013-07-08 04:05:00,
2013-07-07 23:07:00,72.5,66.0,29.88,South,189,0.0,0.0,80,0.00,,,0.00,Wunderground v.1.15,2013-07-08 04:07:00,
2013-07-07 23:08:00,72.5,66.0,29.88,South,189,0.0,0.0,80,0.00,,,0.00,Wunderground v.1.15,2013-07-08 04:08:00,
2013-07-07 23:14:00,72.4,65.9,29.88,SW,230,0.0,0.0,80,0.00,,,0.00,Wunderground v.1.15,2013-07-08 04:14:00,
2013-07-07 23:19:00,72.2,65.7,29.88,SW,230,0.0,0.0,80,0.00,,,0.00,Wunderground v.1.15,2013-07-08 04:19:00,
2013-07-07 23:25:00,72.1,65.6,29.88,SSW,213,0.0,1.0,80,0.00,,,0.00,Wunderground v.1.15,2013-07-08 04:25:00,
2013-07-07 23:31:00,71.9,65.4,29.88,SSW,204,0.0,0.0,80,0.00,,,0.00,Wunderground v.1.15,2013-07-08 04:31:00,
2013-07-07 23:37:00,71.7,65.6,29.89,SSW,204,0.0,0.0,81,0.00,,,0.00,Wunderground v.1.15,2013-07-08 04:37:00,
2013-07-07 23:43:00,71.5,65.4,29.89,SSW,204,0.0,0.0,81,0.00,,,0.00,Wunderground v.1.15,2013-07-08 04:43:00,
2013-07-07 23:49:00,71.3,65.5,29.89,SSW,204,0.0,0.0,82,0.00,,,0.00,Wunderground v.1.15,2013-07-08 04:49:00,
2013-07-07 23:55:00,70.8,65.0,29.89,SSW,204,0.0,0.0,82,0.00,,,0.00,Wunderground v.1.15,2013-07-08 04:55:00,